Singer Island, Florida
Current Conditions -  °F | °C
As of 9:53 AM on Saturday 20 Dec 2014 (Local Time) from KPBI Reporting Station
Scattered Clouds Scattered Clouds  
Wind Chill: 25°   Ceiling: Unl
Heat Index: 26°   Visibility: 10mi
Dew Point: 15°   Wind: 5mph
Humidity: 54%   Direction: NA
Pressure: 30.11"   Gusts: NA
Location:  26.7789°N, 80.0745°W
Report Text: KPBI 201453Z VRB04KT 10SM SCT039 SCT250 25/15 A3011 RMK AO2 SLP196 T02500150 51013
Loading
Personal Weather Stations






























Interactive Weather Map New forecast layout! Learn more

10-Day Weather Forecast

Advertisements
Track Severe Weather on mobile